Time;durP1;ratioP1;P1;durP2;ratioP2;P2;SDS_P1;SDS_P2;PMS_P1;PMS_P2;Temp;Humidity;BMP_temperature;BMP_pressure;BME280_temperature;BME280_humidity;BME280_pressure;Samples;Min_cycle;Max_cycle;Signal;HPM_P1;HPM_P2
2021/11/28 00:01:03;;;;;;;12.48;7.63;;;;;;;;;;5092778;28;20032;-67
2021/11/28 00:03:29;;;;;;;10.38;6.32;;;;;;;;;;5093598;28;20022;-67
2021/11/28 00:05:59;;;;;;;10.85;6.45;;;;;;;;;;5092967;28;20095;-68
2021/11/28 00:11:00;;;;;;;7.82;5.50;;;;;;;;;;5093009;28;20024;-68
2021/11/28 00:15:56;;;;;;;13.40;7.20;;;;;;;;;;5092970;28;20020;-66
2021/11/28 00:18:23;;;;;;;13.70;7.20;;;;;;;;;;5093207;28;20054;-67
2021/11/28 00:20:49;;;;;;;17.50;8.10;;;;;;;;;;5092762;28;20055;-67
2021/11/28 00:23:15;;;;;;;14.52;8.13;;;;;;;;;;5093137;28;20051;-67
2021/11/28 00:25:41;;;;;;;14.07;7.88;;;;;;;;;;5092544;28;20019;-68
2021/11/28 00:28:07;;;;;;;16.25;7.70;;;;;;;;;;5093020;28;20024;-67
2021/11/28 00:30:34;;;;;;;15.07;8.60;;;;;;;;;;5093120;28;20156;-66
2021/11/28 00:33:00;;;;;;;13.52;8.43;;;;;;;;;;5093138;28;20024;-68
2021/11/28 00:35:26;;;;;;;13.52;7.93;;;;;;;;;;5093274;28;20103;-68
2021/11/28 00:37:52;;;;;;;16.35;8.15;;;;;;;;;;5092591;28;20207;-68
2021/11/28 00:40:18;;;;;;;11.77;6.78;;;;;;;;;;5093194;28;20473;-68
2021/11/28 00:42:44;;;;;;;12.95;6.82;;;;;;;;;;5089325;28;20469;-67
2021/11/28 00:45:10;;;;;;;15.45;7.85;;;;;;;;;;5093236;28;20077;-68
2021/11/28 00:47:37;;;;;;;12.98;7.05;;;;;;;;;;5091958;28;20020;-67
2021/11/28 00:52:35;;;;;;;11.32;7.32;;;;;;;;;;5092168;28;20036;-67
2021/11/28 00:55:02;;;;;;;12.73;6.90;;;;;;;;;;5092126;28;20019;-68
2021/11/28 00:57:28;;;;;;;10.55;7.22;;;;;;;;;;5093105;28;20048;-68
2021/11/28 00:59:54;;;;;;;10.40;5.07;;;;;;;;;;5092442;28;20032;-68
2021/11/28 01:02:21;;;;;;;11.02;4.32;;;;;;;;;;5093289;28;20016;-67
2021/11/28 01:04:47;;;;;;;11.35;6.78;;;;;;;;;;5092238;28;20020;-67
2021/11/28 01:07:13;;;;;;;11.07;7.00;;;;;;;;;;5092695;28;20028;-67
2021/11/28 01:09:39;;;;;;;16.58;7.82;;;;;;;;;;5092136;28;20032;-67
2021/11/28 01:12:06;;;;;;;14.45;8.15;;;;;;;;;;5090029;28;20466;-67
2021/11/28 01:14:32;;;;;;;10.82;7.05;;;;;;;;;;5092561;28;20378;-67
2021/11/28 01:16:59;;;;;;;13.15;7.53;;;;;;;;;;5092011;28;20081;-68
2021/11/28 01:19:25;;;;;;;14.38;7.97;;;;;;;;;;5089463;28;20512;-68
2021/11/28 01:21:52;;;;;;;11.00;7.32;;;;;;;;;;5091634;28;20112;-67
2021/11/28 01:24:18;;;;;;;11.95;7.05;;;;;;;;;;5092286;28;20514;-68
2021/11/28 01:26:44;;;;;;;18.50;7.88;;;;;;;;;;5091468;28;20016;-67
2021/11/28 01:29:10;;;;;;;13.70;7.80;;;;;;;;;;5092441;28;20077;-68
2021/11/28 01:31:36;;;;;;;11.57;7.68;;;;;;;;;;5091440;28;20016;-67
2021/11/28 01:34:02;;;;;;;13.23;7.28;;;;;;;;;;5092072;28;20796;-68
2021/11/28 01:36:28;;;;;;;12.88;7.90;;;;;;;;;;5091940;28;20016;-68
2021/11/28 01:38:54;;;;;;;15.85;8.00;;;;;;;;;;5091193;28;20201;-67
2021/11/28 01:41:20;;;;;;;13.52;6.75;;;;;;;;;;5092036;28;20032;-68
2021/11/28 01:43:50;;;;;;;11.60;6.75;;;;;;;;;;5091183;28;20093;-68
2021/11/28 01:46:18;;;;;;;13.23;7.38;;;;;;;;;;5091916;28;20369;-67
2021/11/28 01:48:44;;;;;;;13.40;6.90;;;;;;;;;;5090622;28;20135;-68
2021/11/28 01:51:10;;;;;;;12.02;7.80;;;;;;;;;;5091690;28;20019;-68
2021/11/28 01:53:36;;;;;;;13.00;7.47;;;;;;;;;;5091473;28;20388;-67
2021/11/28 01:56:03;;;;;;;13.63;7.03;;;;;;;;;;5092551;28;20020;-68
2021/11/28 01:58:29;;;;;;;12.45;7.35;;;;;;;;;;5092591;28;20057;-68
2021/11/28 02:00:56;;;;;;;12.60;7.15;;;;;;;;;;5093114;28;20031;-68
2021/11/28 02:03:23;;;;;;;11.95;6.88;;;;;;;;;;5093562;28;20098;-68
2021/11/28 02:05:50;;;;;;;10.82;6.75;;;;;;;;;;5091345;28;20020;-69
2021/11/28 02:08:16;;;;;;;12.85;6.82;;;;;;;;;;5091152;28;20393;-68
2021/11/28 02:10:43;;;;;;;13.80;6.82;;;;;;;;;;5092022;28;20028;-68
2021/11/28 02:13:09;;;;;;;12.55;7.43;;;;;;;;;;5092932;28;20397;-69
2021/11/28 02:15:35;;;;;;;11.10;6.03;;;;;;;;;;5091752;28;20047;-66
2021/11/28 02:18:02;;;;;;;11.40;5.88;;;;;;;;;;5092574;28;20128;-68
2021/11/28 02:20:29;;;;;;;11.13;6.68;;;;;;;;;;5092491;28;20213;-68
2021/11/28 02:22:56;;;;;;;9.18;5.63;;;;;;;;;;5091537;28;20027;-68
2021/11/28 02:25:24;;;;;;;11.18;5.65;;;;;;;;;;5092376;28;20020;-68
2021/11/28 02:27:51;;;;;;;10.60;6.05;;;;;;;;;;5091766;28;20031;-67
2021/11/28 02:30:17;;;;;;;9.63;6.20;;;;;;;;;;5092323;28;20026;-67
2021/11/28 02:32:44;;;;;;;10.95;6.50;;;;;;;;;;5091793;28;20071;-67
2021/11/28 02:35:14;;;;;;;10.80;6.05;;;;;;;;;;5092048;28;20534;-68
2021/11/28 02:37:40;;;;;;;7.18;5.20;;;;;;;;;;5091630;28;20094;-67
2021/11/28 02:40:06;;;;;;;10.18;5.50;;;;;;;;;;5092106;28;20065;-68
2021/11/28 02:42:39;;;;;;;9.13;5.75;;;;;;;;;;5092423;28;20077;-67
2021/11/28 02:45:05;;;;;;;11.85;6.88;;;;;;;;;;5092377;28;20081;-68
2021/11/28 02:47:31;;;;;;;11.95;6.20;;;;;;;;;;5092300;28;20431;-68
2021/11/28 02:49:58;;;;;;;9.63;6.30;;;;;;;;;;5091260;28;20041;-68
2021/11/28 02:52:26;;;;;;;11.90;6.35;;;;;;;;;;5092091;28;20024;-68
2021/11/28 02:54:52;;;;;;;9.27;5.95;;;;;;;;;;5091019;28;20031;-69
2021/11/28 02:57:18;;;;;;;12.48;6.68;;;;;;;;;;5092198;28;20036;-68
2021/11/28 02:59:44;;;;;;;13.65;6.68;;;;;;;;;;5091031;28;20381;-68
2021/11/28 03:02:11;;;;;;;15.05;6.93;;;;;;;;;;5091794;28;20020;-67
2021/11/28 03:04:37;;;;;;;11.60;6.38;;;;;;;;;;5091069;28;20028;-66
2021/11/28 03:07:03;;;;;;;13.00;6.20;;;;;;;;;;5092162;28;20028;-69
2021/11/28 03:09:30;;;;;;;10.70;6.22;;;;;;;;;;5091857;28;20031;-68
2021/11/28 03:11:57;;;;;;;11.40;6.18;;;;;;;;;;5091466;28;20027;-68
2021/11/28 03:14:23;;;;;;;8.43;5.50;;;;;;;;;;5091651;28;20028;-68
2021/11/28 03:16:49;;;;;;;9.07;5.78;;;;;;;;;;5090857;28;20036;-68
2021/11/28 03:19:15;;;;;;;12.30;5.65;;;;;;;;;;5095868;28;20019;-68
2021/11/28 03:21:41;;;;;;;8.45;5.65;;;;;;;;;;5094915;28;20103;-67
2021/11/28 03:24:08;;;;;;;10.75;5.15;;;;;;;;;;5095986;28;20035;-68
2021/11/28 03:26:41;;;;;;;10.20;5.65;;;;;;;;;;5095433;28;20416;-67
2021/11/28 03:29:09;;;;;;;8.90;5.13;;;;;;;;;;5095945;28;20035;-68
2021/11/28 03:31:37;;;;;;;7.47;4.85;;;;;;;;;;5095556;28;20031;-67
2021/11/28 03:34:04;;;;;;;9.65;5.50;;;;;;;;;;5095818;28;20081;-68
2021/11/28 03:36:31;;;;;;;8.93;5.38;;;;;;;;;;5095798;28;20028;-67
2021/11/28 03:38:59;;;;;;;6.80;4.80;;;;;;;;;;5094983;28;20035;-67
2021/11/28 03:41:26;;;;;;;12.05;5.15;;;;;;;;;;5095526;28;20027;-67
2021/11/28 03:43:54;;;;;;;7.57;4.32;;;;;;;;;;5095311;28;20020;-68
2021/11/28 03:46:20;;;;;;;9.93;4.70;;;;;;;;;;5095498;28;20020;-68
2021/11/28 03:48:46;;;;;;;9.27;4.65;;;;;;;;;;5094646;28;20052;-67
2021/11/28 03:51:12;;;;;;;10.32;4.68;;;;;;;;;;5095546;28;20032;-68
2021/11/28 03:53:38;;;;;;;10.35;4.82;;;;;;;;;;5094925;28;20100;-67
2021/11/28 03:56:08;;;;;;;7.40;4.78;;;;;;;;;;5095166;28;20020;-68
2021/11/28 03:58:35;;;;;;;8.10;4.50;;;;;;;;;;5095429;28;20020;-68
2021/11/28 04:01:03;;;;;;;8.65;4.88;;;;;;;;;;5094762;28;20051;-68
2021/11/28 04:03:30;;;;;;;9.43;5.05;;;;;;;;;;5095124;28;20346;-68
2021/11/28 04:05:56;;;;;;;9.63;4.47;;;;;;;;;;5094331;28;20077;-68
2021/11/28 04:08:22;;;;;;;12.48;5.38;;;;;;;;;;5095216;28;20032;-68
2021/11/28 04:10:49;;;;;;;9.52;5.05;;;;;;;;;;5094117;28;20031;-68
2021/11/28 04:13:15;;;;;;;8.43;4.15;;;;;;;;;;5094866;28;20484;-68
2021/11/28 04:15:41;;;;;;;9.52;4.43;;;;;;;;;;5094318;28;20518;-67
2021/11/28 04:18:07;;;;;;;6.57;3.70;;;;;;;;;;5094663;28;20381;-68
2021/11/28 04:20:34;;;;;;;10.48;3.00;;;;;;;;;;5095129;28;20016;-68
2021/11/28 04:23:00;;;;;;;7.05;3.25;;;;;;;;;;5093793;28;20451;-68
2021/11/28 04:25:27;;;;;;;6.22;2.95;;;;;;;;;;5094626;28;20483;-68
2021/11/28 04:27:53;;;;;;;4.95;2.80;;;;;;;;;;5093838;28;20028;-68
2021/11/28 04:30:20;;;;;;;8.95;3.20;;;;;;;;;;5093802;28;20035;-68
2021/11/28 04:32:46;;;;;;;6.97;3.70;;;;;;;;;;5093929;28;20441;-68
2021/11/28 04:35:12;;;;;;;6.57;3.17;;;;;;;;;;5093632;28;20355;-68
2021/11/28 04:37:40;;;;;;;7.40;3.35;;;;;;;;;;5094083;28;20450;-66
2021/11/28 04:40:07;;;;;;;6.35;3.10;;;;;;;;;;5094632;28;20032;-67
2021/11/28 04:42:33;;;;;;;7.97;2.58;;;;;;;;;;5094297;28;20470;-67
2021/11/28 04:45:00;;;;;;;6.63;2.63;;;;;;;;;;5093682;28;20034;-67
2021/11/28 04:47:26;;;;;;;4.05;2.10;;;;;;;;;;5094544;28;20051;-68
2021/11/28 04:49:52;;;;;;;6.75;2.75;;;;;;;;;;5093254;28;20036;-67
2021/11/28 04:52:18;;;;;;;6.65;2.47;;;;;;;;;;5093929;28;20024;-67
2021/11/28 04:54:44;;;;;;;4.38;2.17;;;;;;;;;;5093477;28;20035;-67
2021/11/28 04:57:11;;;;;;;4.07;2.17;;;;;;;;;;5094098;28;20020;-67
2021/11/28 04:59:37;;;;;;;7.95;2.83;;;;;;;;;;5094083;28;20531;-67
2021/11/28 05:02:03;;;;;;;6.05;2.05;;;;;;;;;;5093225;28;20028;-72
2021/11/28 05:04:29;;;;;;;4.15;2.00;;;;;;;;;;5093999;28;20016;-67
2021/11/28 05:06:56;;;;;;;6.78;2.30;;;;;;;;;;5093275;28;20428;-68
2021/11/28 05:09:22;;;;;;;5.10;2.20;;;;;;;;;;5093917;28;20032;-67
2021/11/28 05:11:48;;;;;;;4.30;2.30;;;;;;;;;;5092835;28;20024;-66
2021/11/28 05:14:14;;;;;;;4.60;2.05;;;;;;;;;;5093956;28;20059;-67
2021/11/28 05:16:42;;;;;;;4.40;1.95;;;;;;;;;;5093040;28;20523;-66
2021/11/28 05:19:08;;;;;;;3.38;2.00;;;;;;;;;;5093780;28;20076;-67
2021/11/28 05:21:34;;;;;;;6.95;2.10;;;;;;;;;;5094113;28;20040;-67
2021/11/28 05:24:00;;;;;;;6.40;2.30;;;;;;;;;;5092699;28;20201;-67
2021/11/28 05:26:26;;;;;;;3.65;2.25;;;;;;;;;;5093654;28;20362;-66
2021/11/28 05:28:53;;;;;;;4.38;2.33;;;;;;;;;;5092571;28;20028;-67
2021/11/28 05:31:19;;;;;;;3.35;1.70;;;;;;;;;;5093521;28;20024;-67
2021/11/28 05:33:49;;;;;;;3.58;1.50;;;;;;;;;;5092701;28;20095;-66
2021/11/28 05:36:16;;;;;;;4.50;1.98;;;;;;;;;;5093487;28;20021;-67
2021/11/28 05:38:43;;;;;;;3.30;2.20;;;;;;;;;;5092648;28;20073;-66
2021/11/28 05:41:09;;;;;;;3.20;1.90;;;;;;;;;;5092053;28;20381;-67
2021/11/28 05:43:42;;;;;;;3.90;1.95;;;;;;;;;;5093236;28;20028;-67
2021/11/28 05:46:08;;;;;;;6.50;2.10;;;;;;;;;;5093375;28;20024;-67
2021/11/28 05:48:35;;;;;;;3.40;1.92;;;;;;;;;;5092887;28;20055;-67
2021/11/28 05:51:02;;;;;;;4.28;2.33;;;;;;;;;;5092462;28;20465;-67
2021/11/28 05:53:28;;;;;;;8.05;2.88;;;;;;;;;;5093379;28;20035;-69
2021/11/28 05:55:55;;;;;;;6.57;2.10;;;;;;;;;;5092336;28;20020;-68
2021/11/28 05:58:21;;;;;;;6.82;2.10;;;;;;;;;;5091277;28;20440;-68
2021/11/28 06:00:48;;;;;;;5.70;2.08;;;;;;;;;;5092570;28;20473;-68
2021/11/28 06:03:14;;;;;;;4.90;2.38;;;;;;;;;;5092644;28;20023;-68
2021/11/28 06:05:45;;;;;;;6.88;2.83;;;;;;;;;;5092775;28;20048;-67
2021/11/28 06:08:11;;;;;;;4.72;2.22;;;;;;;;;;5092991;28;20024;-69
2021/11/28 06:10:38;;;;;;;5.35;2.78;;;;;;;;;;5092522;28;20027;-68
2021/11/28 06:13:04;;;;;;;4.35;2.28;;;;;;;;;;5091869;28;20781;-66
2021/11/28 06:15:30;;;;;;;4.40;2.20;;;;;;;;;;5092485;28;20469;-68
2021/11/28 06:17:56;;;;;;;6.88;2.40;;;;;;;;;;5091468;28;20028;-67
2021/11/28 06:20:22;;;;;;;6.10;2.47;;;;;;;;;;5092815;28;20119;-66
2021/11/28 06:22:49;;;;;;;4.18;2.30;;;;;;;;;;5091422;28;20027;-67
2021/11/28 06:25:15;;;;;;;5.43;2.90;;;;;;;;;;5092584;28;20039;-66
2021/11/28 06:27:47;;;;;;;7.22;2.83;;;;;;;;;;5092207;28;20032;-66
2021/11/28 06:30:13;;;;;;;5.65;2.88;;;;;;;;;;5092000;28;20432;-69
2021/11/28 06:32:40;;;;;;;5.40;2.53;;;;;;;;;;5092424;28;20024;-67
2021/11/28 06:35:06;;;;;;;4.57;3.05;;;;;;;;;;5091506;28;20038;-66
2021/11/28 06:37:33;;;;;;;4.22;2.80;;;;;;;;;;5092393;28;20093;-67
2021/11/28 06:39:59;;;;;;;4.68;2.80;;;;;;;;;;5091538;28;20047;-68
2021/11/28 06:42:25;;;;;;;7.32;3.05;;;;;;;;;;5091958;28;20484;-66
2021/11/28 06:44:51;;;;;;;5.28;2.92;;;;;;;;;;5091371;28;20544;-67
2021/11/28 06:47:17;;;;;;;10.70;4.10;;;;;;;;;;5092212;28;20492;-67
2021/11/28 06:49:45;;;;;;;6.43;3.17;;;;;;;;;;5091751;28;20459;-66
2021/11/28 06:52:11;;;;;;;5.32;3.20;;;;;;;;;;5091603;28;20095;-67
2021/11/28 06:54:37;;;;;;;4.93;3.05;;;;;;;;;;5091984;28;20023;-66
2021/11/28 06:57:04;;;;;;;7.25;3.60;;;;;;;;;;5091396;28;20109;-66
2021/11/28 06:59:31;;;;;;;8.68;2.75;;;;;;;;;;5091819;28;20024;-67
2021/11/28 07:01:57;;;;;;;7.30;2.70;;;;;;;;;;5091248;28;20082;-67
2021/11/28 07:04:23;;;;;;;7.22;3.35;;;;;;;;;;5091712;28;20377;-66
2021/11/28 07:06:49;;;;;;;4.97;3.05;;;;;;;;;;5090878;28;20363;-66
2021/11/28 07:09:15;;;;;;;8.45;3.20;;;;;;;;;;5092044;28;20032;-67
2021/11/28 07:11:42;;;;;;;5.47;2.95;;;;;;;;;;5092065;28;20024;-67
2021/11/28 07:14:09;;;;;;;9.98;3.00;;;;;;;;;;5091412;28;20027;-67
2021/11/28 07:16:35;;;;;;;5.35;2.35;;;;;;;;;;5091686;28;20469;-67
2021/11/28 07:19:01;;;;;;;6.40;3.00;;;;;;;;;;5090769;28;20027;-67
2021/11/28 07:21:27;;;;;;;7.90;3.00;;;;;;;;;;5091749;28;20031;-67
2021/11/28 07:23:53;;;;;;;6.32;2.22;;;;;;;;;;5090953;28;20465;-67
2021/11/28 07:26:19;;;;;;;5.35;2.78;;;;;;;;;;5091559;28;20381;-67
2021/11/28 07:28:47;;;;;;;4.47;2.15;;;;;;;;;;5091119;28;20030;-66
2021/11/28 07:31:13;;;;;;;9.07;2.95;;;;;;;;;;5091628;28;20024;-67
2021/11/28 07:33:39;;;;;;;5.40;2.40;;;;;;;;;;5091869;28;20032;-67
2021/11/28 07:36:06;;;;;;;9.82;2.13;;;;;;;;;;5090808;28;20023;-67
2021/11/28 07:38:33;;;;;;;4.68;1.90;;;;;;;;;;5091484;28;20028;-66
2021/11/28 07:40:59;;;;;;;6.07;2.47;;;;;;;;;;5090895;28;20024;-67
2021/11/28 07:43:25;;;;;;;7.05;2.03;;;;;;;;;;5091593;28;20024;-75
2021/11/28 07:45:51;;;;;;;3.40;2.10;;;;;;;;;;5089230;28;20024;-67
2021/11/28 07:48:17;;;;;;;8.20;2.20;;;;;;;;;;5089859;28;20052;-67
2021/11/28 07:50:51;;;;;;;6.32;2.65;;;;;;;;;;5088876;28;20018;-67
2021/11/28 07:53:17;;;;;;;8.55;3.55;;;;;;;;;;5089862;28;20099;-68
2021/11/28 07:55:49;;;;;;;7.68;4.22;;;;;;;;;;5089610;28;20484;-67
2021/11/28 07:58:16;;;;;;;9.38;3.85;;;;;;;;;;5089504;28;20481;-68
2021/11/28 08:00:42;;;;;;;10.85;4.68;;;;;;;;;;5089566;28;20381;-67
2021/11/28 08:03:08;;;;;;;9.45;4.38;;;;;;;;;;5089199;28;20039;-68
2021/11/28 08:05:34;;;;;;;11.40;5.25;;;;;;;;;;5093368;28;20456;-68
2021/11/28 08:08:00;;;;;;;9.75;4.85;;;;;;;;;;5092512;28;20024;-68
2021/11/28 08:10:26;;;;;;;10.18;5.28;;;;;;;;;;5093341;28;20380;-67
2021/11/28 08:12:53;;;;;;;10.90;4.93;;;;;;;;;;5092459;28;20032;-68
2021/11/28 08:15:19;;;;;;;10.25;4.68;;;;;;;;;;5093623;28;20028;-68
2021/11/28 08:17:47;;;;;;;8.40;4.90;;;;;;;;;;5092999;28;20450;-67
2021/11/28 08:20:14;;;;;;;12.13;5.45;;;;;;;;;;5093804;28;20024;-68
2021/11/28 08:22:40;;;;;;;8.80;5.18;;;;;;;;;;5093346;28;20020;-68
2021/11/28 08:25:08;;;;;;;7.72;4.47;;;;;;;;;;5092899;28;20546;-68
2021/11/28 08:27:34;;;;;;;6.10;3.85;;;;;;;;;;5093311;28;20016;-68
2021/11/28 08:30:04;;;;;;;7.75;4.60;;;;;;;;;;5092472;28;20073;-68
2021/11/28 08:32:30;;;;;;;9.43;3.70;;;;;;;;;;5093209;28;20047;-68
2021/11/28 08:34:56;;;;;;;6.50;3.78;;;;;;;;;;5091611;28;20027;-68
2021/11/28 08:37:22;;;;;;;7.20;3.92;;;;;;;;;;5092360;28;20077;-68
2021/11/28 08:39:48;;;;;;;4.55;2.97;;;;;;;;;;5092126;28;20040;-68
2021/11/28 08:42:15;;;;;;;5.88;3.45;;;;;;;;;;5092794;28;20050;-68
2021/11/28 08:44:41;;;;;;;4.13;2.38;;;;;;;;;;5092930;28;20024;-68
2021/11/28 08:47:07;;;;;;;4.45;2.22;;;;;;;;;;5092411;28;20105;-68
2021/11/28 08:49:34;;;;;;;7.18;4.25;;;;;;;;;;5095240;28;20036;-68
2021/11/28 08:52:01;;;;;;;9.15;5.18;;;;;;;;;;5092124;28;20016;-68
2021/11/28 08:54:30;;;;;;;8.02;5.22;;;;;;;;;;5092756;28;20155;-68
2021/11/28 08:56:56;;;;;;;8.57;5.33;;;;;;;;;;5092048;28;20457;-68
2021/11/28 08:59:24;;;;;;;8.93;5.00;;;;;;;;;;5093292;28;20054;-71
2021/11/28 09:01:51;;;;;;;10.95;6.00;;;;;;;;;;5092792;28;20036;-68
2021/11/28 09:04:17;;;;;;;8.45;5.35;;;;;;;;;;5093727;28;20036;-69
2021/11/28 09:06:43;;;;;;;10.77;5.50;;;;;;;;;;5093483;28;20466;-68
2021/11/28 09:09:09;;;;;;;11.68;6.60;;;;;;;;;;5093486;28;20043;-69
2021/11/28 09:11:36;;;;;;;19.77;8.68;;;;;;;;;;5093685;28;20020;-69
2021/11/28 09:14:02;;;;;;;22.92;9.55;;;;;;;;;;5093192;28;20055;-69
2021/11/28 09:16:28;;;;;;;21.05;10.07;;;;;;;;;;5093270;28;20110;-67
2021/11/28 09:19:00;;;;;;;16.20;8.48;;;;;;;;;;5098081;28;20069;-68
2021/11/28 09:21:26;;;;;;;18.00;9.15;;;;;;;;;;5112934;28;20084;-69
2021/11/28 09:26:41;;;;;;;14.07;7.38;;;;;;;;;;5093276;28;20039;-68
2021/11/28 09:29:07;;;;;;;9.18;5.28;;;;;;;;;;5092846;28;20047;-69
2021/11/28 09:31:33;;;;;;;12.43;5.55;;;;;;;;;;5093317;28;20389;-69
2021/11/28 09:34:01;;;;;;;10.38;6.07;;;;;;;;;;5091052;28;20016;-68
2021/11/28 09:36:29;;;;;;;12.27;6.60;;;;;;;;;;5091917;28;20354;-69
2021/11/28 09:38:55;;;;;;;10.50;6.18;;;;;;;;;;5090833;28;20476;-71
2021/11/28 09:41:23;;;;;;;11.55;5.60;;;;;;;;;;5091426;28;20119;-69
2021/11/28 09:43:50;;;;;;;10.07;5.82;;;;;;;;;;5091702;28;20440;-69
2021/11/28 09:46:18;;;;;;;10.25;6.25;;;;;;;;;;5092885;28;20362;-70
2021/11/28 09:48:46;;;;;;;8.85;5.80;;;;;;;;;;5096382;28;20043;-68
2021/11/28 09:51:12;;;;;;;10.15;5.85;;;;;;;;;;5097440;28;20541;-66
2021/11/28 09:53:39;;;;;;;10.05;6.80;;;;;;;;;;5092895;28;20024;-68
2021/11/28 09:56:06;;;;;;;12.98;6.35;;;;;;;;;;5092047;28;20151;-69
2021/11/28 09:58:32;;;;;;;9.18;6.28;;;;;;;;;;5095484;28;20024;-69
2021/11/28 10:00:58;;;;;;;12.02;6.32;;;;;;;;;;5091675;28;20035;-69
2021/11/28 10:03:25;;;;;;;12.82;6.45;;;;;;;;;;5092280;28;20024;-74
2021/11/28 10:05:52;;;;;;;8.77;5.68;;;;;;;;;;5091384;28;20121;-73
2021/11/28 10:08:20;;;;;;;11.88;5.38;;;;;;;;;;5091877;28;20481;-72
2021/11/28 10:11:09;;;;;;;11.13;5.63;;;;;;;;;;5089415;28;20132;-69
2021/11/28 10:13:35;;;;;;;10.48;6.30;;;;;;;;;;5090761;28;20074;-67
2021/11/28 10:16:01;;;;;;;9.27;5.45;;;;;;;;;;5091641;28;20028;-67
2021/11/28 10:18:28;;;;;;;7.28;4.13;;;;;;;;;;5094656;28;20051;-68
2021/11/28 10:20:54;;;;;;;8.85;5.43;;;;;;;;;;5112033;28;20046;-69
2021/11/28 10:23:21;;;;;;;11.73;5.40;;;;;;;;;;5097660;28;20095;-68
2021/11/28 10:25:51;;;;;;;9.38;5.25;;;;;;;;;;5091385;28;20031;-64
2021/11/28 10:28:19;;;;;;;11.82;6.18;;;;;;;;;;5091236;28;20031;-67
2021/11/28 10:30:46;;;;;;;11.48;5.95;;;;;;;;;;5092406;28;20454;-67
2021/11/28 10:33:13;;;;;;;9.52;5.70;;;;;;;;;;5091884;28;20515;-67
2021/11/28 10:35:40;;;;;;;8.98;5.93;;;;;;;;;;5091926;28;20089;-66
2021/11/28 10:38:13;;;;;;;13.93;6.20;;;;;;;;;;5091091;28;20111;-70
2021/11/28 10:40:43;;;;;;;10.32;5.75;;;;;;;;;;5092056;28;20126;-73
2021/11/28 10:43:10;;;;;;;9.77;5.97;;;;;;;;;;5091041;28;20087;-68
2021/11/28 10:45:38;;;;;;;9.23;6.18;;;;;;;;;;5091828;28;20031;-67
2021/11/28 10:48:06;;;;;;;11.18;5.50;;;;;;;;;;5090645;28;20024;-67
2021/11/28 10:50:33;;;;;;;9.05;5.95;;;;;;;;;;5071243;28;20016;-67
2021/11/28 10:53:05;;;;;;;9.88;5.72;;;;;;;;;;5070744;28;20028;-69
2021/11/28 10:55:39;;;;;;;8.05;4.60;;;;;;;;;;5071630;28;20024;-74
2021/11/28 10:58:06;;;;;;;11.25;6.13;;;;;;;;;;5070651;28;20024;-77
2021/11/28 11:00:33;;;;;;;12.77;5.75;;;;;;;;;;5071666;28;20037;-70
2021/11/28 11:03:11;;;;;;;10.27;6.43;;;;;;;;;;5073521;28;20495;-70
2021/11/28 11:05:37;;;;;;;11.05;6.22;;;;;;;;;;5091684;28;20020;-67
2021/11/28 11:08:05;;;;;;;8.57;5.88;;;;;;;;;;5090829;28;20346;-67
2021/11/28 11:10:35;;;;;;;7.68;5.03;;;;;;;;;;5091289;28;20033;-70
2021/11/28 11:13:01;;;;;;;8.20;5.38;;;;;;;;;;5090488;28;20016;-68
2021/11/28 11:15:47;;;;;;;9.63;6.07;;;;;;;;;;5089855;28;20361;-71
2021/11/28 11:18:15;;;;;;;9.88;5.90;;;;;;;;;;5091577;28;20070;-72
2021/11/28 11:20:42;;;;;;;9.75;5.80;;;;;;;;;;5111623;28;20016;-68
2021/11/28 11:23:27;;;;;;;8.93;5.38;;;;;;;;;;5095737;28;20235;-67
2021/11/28 11:26:10;;;;;;;11.07;5.57;;;;;;;;;;5090648;28;20032;-67
2021/11/28 11:28:36;;;;;;;8.32;5.45;;;;;;;;;;5091036;28;20024;-66
2021/11/28 11:31:04;;;;;;;10.85;5.90;;;;;;;;;;5089224;28;20368;-68
2021/11/28 11:33:36;;;;;;;8.52;4.90;;;;;;;;;;5091023;28;20103;-68
2021/11/28 11:36:03;;;;;;;8.10;5.53;;;;;;;;;;5090326;28;20024;-68
2021/11/28 11:38:29;;;;;;;9.05;6.10;;;;;;;;;;5092208;28;20048;-68
2021/11/28 11:40:55;;;;;;;11.68;5.60;;;;;;;;;;5094215;28;20482;-67
2021/11/28 11:43:21;;;;;;;7.97;5.38;;;;;;;;;;5094922;28;20431;-68
2021/11/28 11:45:49;;;;;;;8.48;5.63;;;;;;;;;;5095670;28;20346;-68
2021/11/28 11:48:15;;;;;;;9.65;5.25;;;;;;;;;;5095362;28;20089;-68
2021/11/28 11:50:41;;;;;;;8.57;5.35;;;;;;;;;;5115194;27;20468;-68
2021/11/28 11:53:07;;;;;;;11.15;5.90;;;;;;;;;;5114947;28;20038;-68
2021/11/28 11:55:38;;;;;;;9.80;5.80;;;;;;;;;;5115665;28;20030;-68
2021/11/28 11:58:13;;;;;;;8.25;5.20;;;;;;;;;;5114458;28;20034;-68
2021/11/28 12:00:56;;;;;;;12.23;5.57;;;;;;;;;;5115144;28;20035;-68
2021/11/28 12:03:23;;;;;;;7.97;5.20;;;;;;;;;;5115410;28;20028;-69
2021/11/28 12:05:54;;;;;;;9.75;5.38;;;;;;;;;;5115123;28;20027;-67
2021/11/28 12:08:22;;;;;;;13.10;5.90;;;;;;;;;;5115366;28;20027;-70
2021/11/28 12:10:59;;;;;;;11.68;6.35;;;;;;;;;;5115286;28;20032;-68
2021/11/28 12:13:25;;;;;;;11.98;5.70;;;;;;;;;;5115103;28;20460;-67
2021/11/28 12:15:54;;;;;;;9.55;5.50;;;;;;;;;;5114734;27;20489;-66
2021/11/28 12:18:37;;;;;;;41.60;13.23;;;;;;;;;;5113316;28;20520;-66
2021/11/28 12:21:03;;;;;;;13.93;5.50;;;;;;;;;;5114111;28;20024;-66
2021/11/28 12:23:48;;;;;;;11.45;5.38;;;;;;;;;;5098242;28;20020;-68
2021/11/28 12:26:30;;;;;;;7.38;4.70;;;;;;;;;;5093873;28;20020;-67
2021/11/28 12:28:57;;;;;;;7.50;4.20;;;;;;;;;;5093719;28;20028;-66
2021/11/28 12:31:27;;;;;;;9.20;4.60;;;;;;;;;;5094267;28;20027;-67
2021/11/28 12:33:54;;;;;;;6.60;3.70;;;;;;;;;;5093266;28;20797;-66
2021/11/28 12:36:33;;;;;;;7.50;3.95;;;;;;;;;;5093991;28;20039;-67
2021/11/28 12:39:19;;;;;;;6.22;4.20;;;;;;;;;;5093591;28;20089;-67
2021/11/28 12:41:51;;;;;;;9.05;4.50;;;;;;;;;;5083822;28;20036;-67
2021/11/28 12:44:22;;;;;;;8.98;4.47;;;;;;;;;;5093946;28;20023;-67
2021/11/28 12:46:56;;;;;;;11.32;4.35;;;;;;;;;;5094436;28;20496;-67
2021/11/28 12:49:33;;;;;;;50.42;19.08;;;;;;;;;;5104277;28;20053;-67
2021/11/28 12:52:20;;;;;;;12.52;5.85;;;;;;;;;;5113369;28;20027;-68
2021/11/28 12:57:31;;;;;;;12.02;6.88;;;;;;;;;;5114530;28;20059;-67
2021/11/28 13:00:12;;;;;;;10.98;5.72;;;;;;;;;;5113658;28;20040;-67
2021/11/28 13:02:41;;;;;;;9.75;5.55;;;;;;;;;;5114502;28;20026;-67
2021/11/28 13:05:31;;;;;;;9.63;5.60;;;;;;;;;;5113405;28;20022;-67
2021/11/28 13:08:03;;;;;;;8.95;5.43;;;;;;;;;;5113326;28;20028;-67
2021/11/28 13:10:33;;;;;;;10.57;5.30;;;;;;;;;;5114302;28;20039;-67
2021/11/28 13:13:04;;;;;;;8.85;5.32;;;;;;;;;;5113452;28;20102;-67
2021/11/28 13:15:34;;;;;;;7.40;5.30;;;;;;;;;;5114026;28;20019;-66
2021/11/28 13:18:03;;;;;;;8.13;5.40;;;;;;;;;;5113278;28;20039;-66
2021/11/28 13:20:29;;;;;;;10.85;5.95;;;;;;;;;;5101768;27;20465;-67
2021/11/28 13:22:59;;;;;;;12.57;6.40;;;;;;;;;;5092556;28;20035;-66
2021/11/28 13:25:25;;;;;;;;;;;;;;;;;;5093798;28;20069;-68
2021/11/28 13:27:59;;;;;;;9.35;5.70;;;;;;;;;;5093624;28;19950;-68
2021/11/28 13:30:34;;;;;;;14.15;7.18;;;;;;;;;;5093491;28;20047;-68
2021/11/28 13:33:04;;;;;;;10.52;6.57;;;;;;;;;;5092817;28;20024;-68
2021/11/28 13:35:30;;;;;;;9.75;6.00;;;;;;;;;;5093311;28;20377;-66
2021/11/28 13:38:11;;;;;;;9.40;5.97;;;;;;;;;;5092058;28;20435;-67
2021/11/28 13:40:37;;;;;;;11.43;6.93;;;;;;;;;;5093021;28;20485;-68
2021/11/28 13:43:04;;;;;;;11.07;5.68;;;;;;;;;;5092267;28;20447;-68
2021/11/28 13:45:30;;;;;;;8.48;5.32;;;;;;;;;;5093135;28;20028;-66
2021/11/28 13:47:56;;;;;;;10.70;5.13;;;;;;;;;;5092436;28;20020;-67
2021/11/28 13:50:22;;;;;;;7.57;4.35;;;;;;;;;;5111410;28;20124;-69
2021/11/28 13:52:48;;;;;;;6.15;4.65;;;;;;;;;;5113420;28;20031;-67
2021/11/28 13:55:15;;;;;;;10.30;5.63;;;;;;;;;;5112645;28;20102;-66
2021/11/28 13:57:41;;;;;;;9.55;6.35;;;;;;;;;;5113159;28;20019;-66
2021/11/28 14:00:07;;;;;;;10.93;5.85;;;;;;;;;;5111934;28;20491;-68
2021/11/28 14:02:35;;;;;;;12.70;6.43;;;;;;;;;;5112890;28;20024;-67
2021/11/28 14:05:02;;;;;;;11.70;7.32;;;;;;;;;;5112266;28;20076;-66
2021/11/28 14:07:31;;;;;;;10.80;6.80;;;;;;;;;;5112873;28;20126;-67
2021/11/28 14:10:05;;;;;;;12.10;6.45;;;;;;;;;;5111838;28;20035;-66
2021/11/28 14:12:34;;;;;;;12.25;7.13;;;;;;;;;;5113144;28;20016;-67
2021/11/28 14:15:02;;;;;;;8.68;6.38;;;;;;;;;;5112114;28;20115;-68
2021/11/28 14:17:30;;;;;;;12.10;6.65;;;;;;;;;;5112976;28;20050;-67
2021/11/28 14:19:59;;;;;;;11.95;6.13;;;;;;;;;;5112028;28;20500;-66
2021/11/28 14:22:27;;;;;;;11.25;6.78;;;;;;;;;;5105414;28;20020;-67
2021/11/28 14:24:53;;;;;;;8.55;6.25;;;;;;;;;;5092283;28;20111;-67
2021/11/28 14:27:23;;;;;;;9.77;6.43;;;;;;;;;;5091893;28;20053;-67
2021/11/28 14:30:04;;;;;;;13.27;6.38;;;;;;;;;;5090946;28;20122;-67
2021/11/28 14:32:30;;;;;;;12.13;6.38;;;;;;;;;;5092603;28;20028;-67
2021/11/28 14:35:19;;;;;;;10.48;5.88;;;;;;;;;;5091721;28;20024;-66
2021/11/28 14:37:45;;;;;;;9.80;6.03;;;;;;;;;;5091863;28;20502;-67
2021/11/28 14:40:12;;;;;;;10.13;5.70;;;;;;;;;;5089950;28;20040;-67
2021/11/28 14:42:38;;;;;;;8.55;5.78;;;;;;;;;;5092177;28;20408;-67
2021/11/28 14:45:04;;;;;;;7.90;5.00;;;;;;;;;;5091455;28;20052;-67
2021/11/28 14:47:30;;;;;;;10.45;5.50;;;;;;;;;;5091900;28;20024;-67
2021/11/28 14:50:01;;;;;;;11.43;6.18;;;;;;;;;;5106758;28;20051;-66
2021/11/28 14:52:27;;;;;;;;;;;;;;;;;;5112782;28;20024;-67
2021/11/28 14:54:53;;;;;;;9.30;5.60;;;;;;;;;;5112431;28;19957;-67